sensor_id;sensor_type;location;lat;lon;timestamp;temperature;humidity
7606;DHT22;3844;53.360;9.738;2023-04-24T00:01:17;11.50;95.70
7606;DHT22;3844;53.360;9.738;2023-04-24T00:03:19;11.50;95.70
7606;DHT22;3844;53.360;9.738;2023-04-24T00:05:21;11.50;95.70
7606;DHT22;3844;53.360;9.738;2023-04-24T00:07:22;11.50;95.70
7606;DHT22;3844;53.360;9.738;2023-04-24T00:09:23;11.50;95.70
7606;DHT22;3844;53.360;9.738;2023-04-24T00:11:24;11.50;95.70
7606;DHT22;3844;53.360;9.738;2023-04-24T00:13:25;11.50;95.70
7606;DHT22;3844;53.360;9.738;2023-04-24T00:17:27;11.50;95.70
7606;DHT22;3844;53.360;9.738;2023-04-24T00:19:28;11.50;95.70
7606;DHT22;3844;53.360;9.738;2023-04-24T00:21:29;11.40;95.70
7606;DHT22;3844;53.360;9.738;2023-04-24T00:23:30;11.30;95.70
7606;DHT22;3844;53.360;9.738;2023-04-24T00:25:31;11.30;95.70
7606;DHT22;3844;53.360;9.738;2023-04-24T00:27:31;11.20;95.70
7606;DHT22;3844;53.360;9.738;2023-04-24T00:31:33;11.10;95.70
7606;DHT22;3844;53.360;9.738;2023-04-24T00:37:38;10.90;95.70
7606;DHT22;3844;53.360;9.738;2023-04-24T00:41:40;10.80;95.70
7606;DHT22;3844;53.360;9.738;2023-04-24T00:45:43;10.70;95.70
7606;DHT22;3844;53.360;9.738;2023-04-24T00:47:45;10.70;95.70
7606;DHT22;3844;53.360;9.738;2023-04-24T00:49:46;10.60;95.70
7606;DHT22;3844;53.360;9.738;2023-04-24T00:51:47;10.60;95.70
7606;DHT22;3844;53.360;9.738;2023-04-24T00:53:47;10.60;95.70
7606;DHT22;3844;53.360;9.738;2023-04-24T00:57:50;10.50;95.70
7606;DHT22;3844;53.360;9.738;2023-04-24T00:59:52;10.50;95.70
7606;DHT22;3844;53.360;9.738;2023-04-24T01:01:53;10.50;95.70
7606;DHT22;3844;53.360;9.738;2023-04-24T01:03:55;10.40;95.70
7606;DHT22;3844;53.360;9.738;2023-04-24T01:05:56;10.40;95.70
7606;DHT22;3844;53.360;9.738;2023-04-24T01:07:59;10.40;95.70
7606;DHT22;3844;53.360;9.738;2023-04-24T01:10:00;10.50;95.70
7606;DHT22;3844;53.360;9.738;2023-04-24T01:14:02;10.50;95.70
7606;DHT22;3844;53.360;9.738;2023-04-24T01:16:03;10.60;95.70
7606;DHT22;3844;53.360;9.738;2023-04-24T01:18:04;10.60;95.70
7606;DHT22;3844;53.360;9.738;2023-04-24T01:20:05;10.60;95.70
7606;DHT22;3844;53.360;9.738;2023-04-24T01:22:11;10.60;95.70
7606;DHT22;3844;53.360;9.738;2023-04-24T01:24:13;10.70;95.70
7606;DHT22;3844;53.360;9.738;2023-04-24T01:26:15;10.70;95.70
7606;DHT22;3844;53.360;9.738;2023-04-24T01:28:17;10.70;95.70
7606;DHT22;3844;53.360;9.738;2023-04-24T01:30:17;10.70;95.70
7606;DHT22;3844;53.360;9.738;2023-04-24T01:32:18;10.60;95.70
7606;DHT22;3844;53.360;9.738;2023-04-24T01:34:20;10.60;95.70
7606;DHT22;3844;53.360;9.738;2023-04-24T01:36:21;10.60;95.70
7606;DHT22;3844;53.360;9.738;2023-04-24T01:38:22;10.50;95.70
7606;DHT22;3844;53.360;9.738;2023-04-24T01:40:23;10.40;95.70
7606;DHT22;3844;53.360;9.738;2023-04-24T01:42:24;10.40;95.70
7606;DHT22;3844;53.360;9.738;2023-04-24T01:44:25;10.40;95.70
7606;DHT22;3844;53.360;9.738;2023-04-24T01:46:28;10.40;95.70
7606;DHT22;3844;53.360;9.738;2023-04-24T01:48:29;10.40;95.70
7606;DHT22;3844;53.360;9.738;2023-04-24T01:50:30;10.40;95.70
7606;DHT22;3844;53.360;9.738;2023-04-24T01:52:32;10.40;95.70
7606;DHT22;3844;53.360;9.738;2023-04-24T01:54:33;10.40;95.70
7606;DHT22;3844;53.360;9.738;2023-04-24T01:56:35;10.30;95.70
7606;DHT22;3844;53.360;9.738;2023-04-24T01:58:36;10.30;95.70
7606;DHT22;3844;53.360;9.738;2023-04-24T02:02:42;10.20;95.70
7606;DHT22;3844;53.360;9.738;2023-04-24T02:04:42;10.10;95.70
7606;DHT22;3844;53.360;9.738;2023-04-24T02:08:44;10.00;95.70
7606;DHT22;3844;53.360;9.738;2023-04-24T02:10:45;9.90;95.70
7606;DHT22;3844;53.360;9.738;2023-04-24T02:16:48;9.80;95.70
7606;DHT22;3844;53.360;9.738;2023-04-24T02:20:50;9.70;95.70
7606;DHT22;3844;53.360;9.738;2023-04-24T02:22:50;9.60;95.70
7606;DHT22;3844;53.360;9.738;2023-04-24T02:26:52;9.50;95.70
7606;DHT22;3844;53.360;9.738;2023-04-24T02:30:54;9.50;95.70
7606;DHT22;3844;53.360;9.738;2023-04-24T02:36:57;9.40;95.70
7606;DHT22;3844;53.360;9.738;2023-04-24T02:38:58;9.30;95.70
7606;DHT22;3844;53.360;9.738;2023-04-24T02:40:58;9.30;95.70
7606;DHT22;3844;53.360;9.738;2023-04-24T02:43:01;9.30;95.70
7606;DHT22;3844;53.360;9.738;2023-04-24T02:45:01;9.30;95.70
7606;DHT22;3844;53.360;9.738;2023-04-24T02:47:02;9.20;95.70
7606;DHT22;3844;53.360;9.738;2023-04-24T02:51:04;9.30;95.70
7606;DHT22;3844;53.360;9.738;2023-04-24T02:53:06;9.20;95.70
7606;DHT22;3844;53.360;9.738;2023-04-24T02:55:07;9.20;95.70
7606;DHT22;3844;53.360;9.738;2023-04-24T02:57:08;9.20;95.70
7606;DHT22;3844;53.360;9.738;2023-04-24T03:01:10;9.10;95.70
7606;DHT22;3844;53.360;9.738;2023-04-24T03:05:12;9.00;95.70
7606;DHT22;3844;53.360;9.738;2023-04-24T03:07:13;9.10;95.70
7606;DHT22;3844;53.360;9.738;2023-04-24T03:09:14;9.10;95.70
7606;DHT22;3844;53.360;9.738;2023-04-24T03:11:15;9.10;95.70
7606;DHT22;3844;53.360;9.738;2023-04-24T03:13:16;9.10;95.70
7606;DHT22;3844;53.360;9.738;2023-04-24T03:15:17;9.00;95.70
7606;DHT22;3844;53.360;9.738;2023-04-24T03:17:17;9.00;95.70
7606;DHT22;3844;53.360;9.738;2023-04-24T03:21:19;9.00;95.70
7606;DHT22;3844;53.360;9.738;2023-04-24T03:25:21;8.90;95.70
7606;DHT22;3844;53.360;9.738;2023-04-24T03:29:24;8.80;95.70
7606;DHT22;3844;53.360;9.738;2023-04-24T03:35:26;8.80;95.70
7606;DHT22;3844;53.360;9.738;2023-04-24T03:39:28;8.70;95.70
7606;DHT22;3844;53.360;9.738;2023-04-24T03:41:29;8.80;95.70
7606;DHT22;3844;53.360;9.738;2023-04-24T03:47:34;8.80;95.70
7606;DHT22;3844;53.360;9.738;2023-04-24T03:49:35;8.80;95.70
7606;DHT22;3844;53.360;9.738;2023-04-24T03:51:36;8.80;95.70
7606;DHT22;3844;53.360;9.738;2023-04-24T03:53:37;8.70;95.70
7606;DHT22;3844;53.360;9.738;2023-04-24T03:55:37;8.70;95.70
7606;DHT22;3844;53.360;9.738;2023-04-24T03:57:40;8.70;95.70
7606;DHT22;3844;53.360;9.738;2023-04-24T03:59:41;8.60;95.70
7606;DHT22;3844;53.360;9.738;2023-04-24T04:03:42;8.50;95.70
7606;DHT22;3844;53.360;9.738;2023-04-24T04:07:44;8.50;95.70
7606;DHT22;3844;53.360;9.738;2023-04-24T04:11:46;8.50;95.70
7606;DHT22;3844;53.360;9.738;2023-04-24T04:15:48;8.50;95.70
7606;DHT22;3844;53.360;9.738;2023-04-24T04:19:50;8.40;95.70
7606;DHT22;3844;53.360;9.738;2023-04-24T04:23:53;8.40;95.70
7606;DHT22;3844;53.360;9.738;2023-04-24T04:30:02;8.50;95.70
7606;DHT22;3844;53.360;9.738;2023-04-24T04:32:05;8.50;95.70
7606;DHT22;3844;53.360;9.738;2023-04-24T04:34:06;8.60;95.70
7606;DHT22;3844;53.360;9.738;2023-04-24T04:36:08;8.60;95.70
7606;DHT22;3844;53.360;9.738;2023-04-24T04:38:09;8.60;95.70
7606;DHT22;3844;53.360;9.738;2023-04-24T04:40:11;8.60;95.70
7606;DHT22;3844;53.360;9.738;2023-04-24T04:42:14;8.60;95.70
7606;DHT22;3844;53.360;9.738;2023-04-24T04:44:15;8.60;95.70
7606;DHT22;3844;53.360;9.738;2023-04-24T04:48:18;8.70;95.70
7606;DHT22;3844;53.360;9.738;2023-04-24T04:50:19;8.70;95.70
7606;DHT22;3844;53.360;9.738;2023-04-24T04:52:20;8.70;95.70
7606;DHT22;3844;53.360;9.738;2023-04-24T04:56:22;8.80;95.70
7606;DHT22;3844;53.360;9.738;2023-04-24T05:00:23;8.90;95.70
7606;DHT22;3844;53.360;9.738;2023-04-24T05:02:25;9.00;95.70
7606;DHT22;3844;53.360;9.738;2023-04-24T05:04:26;9.10;95.70
7606;DHT22;3844;53.360;9.738;2023-04-24T05:06:27;9.20;95.70
7606;DHT22;3844;53.360;9.738;2023-04-24T05:08:28;9.20;95.70
7606;DHT22;3844;53.360;9.738;2023-04-24T05:12:30;9.50;95.70
7606;DHT22;3844;53.360;9.738;2023-04-24T05:16:32;9.80;95.70
7606;DHT22;3844;53.360;9.738;2023-04-24T05:18:33;9.90;95.70
7606;DHT22;3844;53.360;9.738;2023-04-24T05:22:35;10.20;95.70
7606;DHT22;3844;53.360;9.738;2023-04-24T05:24:36;10.40;95.70
7606;DHT22;3844;53.360;9.738;2023-04-24T05:26:37;10.60;95.70
7606;DHT22;3844;53.360;9.738;2023-04-24T05:30:39;10.80;93.50
7606;DHT22;3844;53.360;9.738;2023-04-24T05:36:42;11.30;91.10
7606;DHT22;3844;53.360;9.738;2023-04-24T05:38:43;11.40;90.90
7606;DHT22;3844;53.360;9.738;2023-04-24T05:40:43;11.60;90.50
7606;DHT22;3844;53.360;9.738;2023-04-24T05:42:44;11.80;90.50
7606;DHT22;3844;53.360;9.738;2023-04-24T05:46:46;12.00;88.10
7606;DHT22;3844;53.360;9.738;2023-04-24T05:50:48;12.00;87.30
7606;DHT22;3844;53.360;9.738;2023-04-24T05:54:50;12.20;86.60
7606;DHT22;3844;53.360;9.738;2023-04-24T06:00:52;12.70;86.10
7606;DHT22;3844;53.360;9.738;2023-04-24T06:04:54;13.10;85.00
7606;DHT22;3844;53.360;9.738;2023-04-24T06:06:59;13.30;84.10
7606;DHT22;3844;53.360;9.738;2023-04-24T06:11:01;13.60;83.10
7606;DHT22;3844;53.360;9.738;2023-04-24T06:13:02;13.70;82.40
7606;DHT22;3844;53.360;9.738;2023-04-24T06:15:03;13.80;82.20
7606;DHT22;3844;53.360;9.738;2023-04-24T06:17:04;13.80;81.30
7606;DHT22;3844;53.360;9.738;2023-04-24T06:19:08;13.70;81.20
7606;DHT22;3844;53.360;9.738;2023-04-24T06:21:09;13.80;81.10
7606;DHT22;3844;53.360;9.738;2023-04-24T06:23:10;13.80;80.70
7606;DHT22;3844;53.360;9.738;2023-04-24T06:27:14;14.10;81.30
7606;DHT22;3844;53.360;9.738;2023-04-24T06:29:15;14.20;79.40
7606;DHT22;3844;53.360;9.738;2023-04-24T06:31:16;14.20;77.90
7606;DHT22;3844;53.360;9.738;2023-04-24T06:33:17;14.30;79.10
7606;DHT22;3844;53.360;9.738;2023-04-24T06:37:20;14.70;79.30
7606;DHT22;3844;53.360;9.738;2023-04-24T06:39:20;14.80;77.90
7606;DHT22;3844;53.360;9.738;2023-04-24T06:43:25;15.00;76.50
7606;DHT22;3844;53.360;9.738;2023-04-24T06:45:26;15.20;77.30
7606;DHT22;3844;53.360;9.738;2023-04-24T06:47:26;15.40;76.50
7606;DHT22;3844;53.360;9.738;2023-04-24T06:51:28;15.50;74.80
7606;DHT22;3844;53.360;9.738;2023-04-24T06:55:30;15.80;75.50
7606;DHT22;3844;53.360;9.738;2023-04-24T06:57:31;15.80;74.10
7606;DHT22;3844;53.360;9.738;2023-04-24T07:01:33;15.90;74.20
7606;DHT22;3844;53.360;9.738;2023-04-24T07:05:35;15.80;73.80
7606;DHT22;3844;53.360;9.738;2023-04-24T07:07:37;15.90;74.60
7606;DHT22;3844;53.360;9.738;2023-04-24T07:15:44;16.50;71.90
7606;DHT22;3844;53.360;9.738;2023-04-24T07:19:46;16.70;70.20
7606;DHT22;3844;53.360;9.738;2023-04-24T07:23:48;15.70;70.80
7606;DHT22;3844;53.360;9.738;2023-04-24T07:25:49;15.10;73.90
7606;DHT22;3844;53.360;9.738;2023-04-24T07:27:49;14.90;74.80
7606;DHT22;3844;53.360;9.738;2023-04-24T07:31:51;14.30;75.30
7606;DHT22;3844;53.360;9.738;2023-04-24T07:33:52;14.00;77.10
7606;DHT22;3844;53.360;9.738;2023-04-24T07:35:53;13.70;77.50
7606;DHT22;3844;53.360;9.738;2023-04-24T07:39:55;13.30;78.80
7606;DHT22;3844;53.360;9.738;2023-04-24T07:43:57;13.60;79.30
7606;DHT22;3844;53.360;9.738;2023-04-24T07:45:59;13.70;78.80
7606;DHT22;3844;53.360;9.738;2023-04-24T07:48:00;13.60;77.40
7606;DHT22;3844;53.360;9.738;2023-04-24T07:50:00;13.50;78.50
7606;DHT22;3844;53.360;9.738;2023-04-24T07:54:02;13.30;78.60
7606;DHT22;3844;53.360;9.738;2023-04-24T07:56:04;13.20;79.00
7606;DHT22;3844;53.360;9.738;2023-04-24T07:58:05;13.10;79.10
7606;DHT22;3844;53.360;9.738;2023-04-24T08:00:06;13.10;79.60
7606;DHT22;3844;53.360;9.738;2023-04-24T08:02:07;13.10;78.90
7606;DHT22;3844;53.360;9.738;2023-04-24T08:06:09;13.10;79.80
7606;DHT22;3844;53.360;9.738;2023-04-24T08:08:10;13.40;80.60
7606;DHT22;3844;53.360;9.738;2023-04-24T08:10:11;13.60;80.00
7606;DHT22;3844;53.360;9.738;2023-04-24T08:14:13;13.70;78.60
7606;DHT22;3844;53.360;9.738;2023-04-24T08:16:15;13.80;78.70
7606;DHT22;3844;53.360;9.738;2023-04-24T08:20:17;14.00;77.50
7606;DHT22;3844;53.360;9.738;2023-04-24T08:22:17;14.10;78.10
7606;DHT22;3844;53.360;9.738;2023-04-24T08:26:19;14.10;76.40
7606;DHT22;3844;53.360;9.738;2023-04-24T08:30:21;14.00;78.00
7606;DHT22;3844;53.360;9.738;2023-04-24T08:32:22;14.20;76.60
7606;DHT22;3844;53.360;9.738;2023-04-24T08:34:23;14.30;77.10
7606;DHT22;3844;53.360;9.738;2023-04-24T08:36:23;14.30;75.40
7606;DHT22;3844;53.360;9.738;2023-04-24T08:40:28;14.40;76.30
7606;DHT22;3844;53.360;9.738;2023-04-24T08:42:30;14.40;76.90
7606;DHT22;3844;53.360;9.738;2023-04-24T08:44:34;14.60;76.10
7606;DHT22;3844;53.360;9.738;2023-04-24T08:46:36;14.50;75.60
7606;DHT22;3844;53.360;9.738;2023-04-24T08:48:38;14.30;74.90
7606;DHT22;3844;53.360;9.738;2023-04-24T08:50:40;14.10;76.60
7606;DHT22;3844;53.360;9.738;2023-04-24T08:52:43;14.10;76.60
7606;DHT22;3844;53.360;9.738;2023-04-24T08:56:48;13.90;76.70
7606;DHT22;3844;53.360;9.738;2023-04-24T08:58:51;13.90;77.00
7606;DHT22;3844;53.360;9.738;2023-04-24T09:00:54;13.90;77.60
7606;DHT22;3844;53.360;9.738;2023-04-24T09:02:55;13.90;77.60
7606;DHT22;3844;53.360;9.738;2023-04-24T09:04:56;13.80;77.80
7606;DHT22;3844;53.360;9.738;2023-04-24T09:06:58;13.80;78.90
7606;DHT22;3844;53.360;9.738;2023-04-24T09:09:01;13.80;79.80
7606;DHT22;3844;53.360;9.738;2023-04-24T09:13:03;13.80;79.30
7606;DHT22;3844;53.360;9.738;2023-04-24T09:15:05;13.70;78.10
7606;DHT22;3844;53.360;9.738;2023-04-24T09:19:08;13.40;78.70
7606;DHT22;3844;53.360;9.738;2023-04-24T09:21:09;13.30;78.70
7606;DHT22;3844;53.360;9.738;2023-04-24T09:23:10;13.30;79.10
7606;DHT22;3844;53.360;9.738;2023-04-24T09:25:16;13.30;80.10
7606;DHT22;3844;53.360;9.738;2023-04-24T09:27:17;13.30;78.90
7606;DHT22;3844;53.360;9.738;2023-04-24T09:31:20;13.20;80.80
7606;DHT22;3844;53.360;9.738;2023-04-24T09:33:22;13.10;79.10
7606;DHT22;3844;53.360;9.738;2023-04-24T09:35:23;13.10;80.10
7606;DHT22;3844;53.360;9.738;2023-04-24T09:37:28;13.00;80.90
7606;DHT22;3844;53.360;9.738;2023-04-24T09:39:29;13.00;79.70
7606;DHT22;3844;53.360;9.738;2023-04-24T09:41:31;12.90;78.70
7606;DHT22;3844;53.360;9.738;2023-04-24T09:43:33;12.80;79.90
7606;DHT22;3844;53.360;9.738;2023-04-24T09:45:37;12.80;80.60
7606;DHT22;3844;53.360;9.738;2023-04-24T09:47:39;12.80;81.10
7606;DHT22;3844;53.360;9.738;2023-04-24T09:49:41;12.80;80.30
7606;DHT22;3844;53.360;9.738;2023-04-24T09:53:47;12.80;81.00
7606;DHT22;3844;53.360;9.738;2023-04-24T09:55:48;12.90;80.60
7606;DHT22;3844;53.360;9.738;2023-04-24T09:57:58;13.00;80.60
7606;DHT22;3844;53.360;9.738;2023-04-24T10:00:00;13.10;80.50
7606;DHT22;3844;53.360;9.738;2023-04-24T10:04:02;13.40;79.90
7606;DHT22;3844;53.360;9.738;2023-04-24T10:06:03;13.50;78.90
7606;DHT22;3844;53.360;9.738;2023-04-24T10:08:11;13.50;78.60
7606;DHT22;3844;53.360;9.738;2023-04-24T10:12:13;13.40;78.60
7606;DHT22;3844;53.360;9.738;2023-04-24T10:14:17;13.50;78.20
7606;DHT22;3844;53.360;9.738;2023-04-24T10:16:19;13.60;77.80
7606;DHT22;3844;53.360;9.738;2023-04-24T10:18:21;13.70;77.30
7606;DHT22;3844;53.360;9.738;2023-04-24T10:20:28;13.70;75.50
7606;DHT22;3844;53.360;9.738;2023-04-24T10:22:30;13.60;77.40
7606;DHT22;3844;53.360;9.738;2023-04-24T10:24:31;13.70;78.30
7606;DHT22;3844;53.360;9.738;2023-04-24T10:26:32;13.80;78.00
7606;DHT22;3844;53.360;9.738;2023-04-24T10:28:34;13.80;78.10
7606;DHT22;3844;53.360;9.738;2023-04-24T10:30:35;13.70;76.60
7606;DHT22;3844;53.360;9.738;2023-04-24T10:32:36;13.70;76.30
7606;DHT22;3844;53.360;9.738;2023-04-24T10:34:36;13.80;77.30
7606;DHT22;3844;53.360;9.738;2023-04-24T10:36:40;14.00;77.30
7606;DHT22;3844;53.360;9.738;2023-04-24T10:38:43;14.10;77.00
7606;DHT22;3844;53.360;9.738;2023-04-24T10:40:46;14.00;76.80
7606;DHT22;3844;53.360;9.738;2023-04-24T10:42:48;13.80;75.90
7606;DHT22;3844;53.360;9.738;2023-04-24T10:44:51;13.60;76.70
7606;DHT22;3844;53.360;9.738;2023-04-24T10:46:54;13.50;76.20
7606;DHT22;3844;53.360;9.738;2023-04-24T10:48:56;13.50;75.80
7606;DHT22;3844;53.360;9.738;2023-04-24T10:50:58;13.60;76.30
7606;DHT22;3844;53.360;9.738;2023-04-24T10:53:06;13.70;76.80
7606;DHT22;3844;53.360;9.738;2023-04-24T10:55:08;13.90;76.20
7606;DHT22;3844;53.360;9.738;2023-04-24T10:59:26;14.20;74.70
7606;DHT22;3844;53.360;9.738;2023-04-24T11:01:31;14.50;74.60
7606;DHT22;3844;53.360;9.738;2023-04-24T11:03:35;14.70;72.20
7606;DHT22;3844;53.360;9.738;2023-04-24T11:10:25;15.30;73.20
7606;DHT22;3844;53.360;9.738;2023-04-24T11:12:27;15.20;72.90
7606;DHT22;3844;53.360;9.738;2023-04-24T11:16:35;14.70;72.00
7606;DHT22;3844;53.360;9.738;2023-04-24T11:18:39;14.30;72.00
7606;DHT22;3844;53.360;9.738;2023-04-24T11:20:44;14.00;71.60
7606;DHT22;3844;53.360;9.738;2023-04-24T11:22:45;13.80;73.20
7606;DHT22;3844;53.360;9.738;2023-04-24T11:26:47;13.60;75.10
7606;DHT22;3844;53.360;9.738;2023-04-24T11:28:48;13.60;75.20
7606;DHT22;3844;53.360;9.738;2023-04-24T11:30:49;13.60;74.90
7606;DHT22;3844;53.360;9.738;2023-04-24T11:32:51;13.50;75.20
7606;DHT22;3844;53.360;9.738;2023-04-24T11:34:57;13.50;75.30
7606;DHT22;3844;53.360;9.738;2023-04-24T11:36:58;13.40;76.80
7606;DHT22;3844;53.360;9.738;2023-04-24T11:38:59;13.40;76.90
7606;DHT22;3844;53.360;9.738;2023-04-24T11:41:01;13.50;76.70
7606;DHT22;3844;53.360;9.738;2023-04-24T11:43:04;13.40;74.90
7606;DHT22;3844;53.360;9.738;2023-04-24T11:45:10;13.30;75.40
7606;DHT22;3844;53.360;9.738;2023-04-24T11:47:11;13.20;75.90
7606;DHT22;3844;53.360;9.738;2023-04-24T11:49:12;13.10;76.60
7606;DHT22;3844;53.360;9.738;2023-04-24T11:51:15;13.00;77.80
7606;DHT22;3844;53.360;9.738;2023-04-24T11:53:18;13.00;77.80
7606;DHT22;3844;53.360;9.738;2023-04-24T11:57:20;12.80;76.90
7606;DHT22;3844;53.360;9.738;2023-04-24T11:59:22;12.80;77.60
7606;DHT22;3844;53.360;9.738;2023-04-24T12:03:23;12.70;78.60
7606;DHT22;3844;53.360;9.738;2023-04-24T12:05:27;12.70;78.70
7606;DHT22;3844;53.360;9.738;2023-04-24T12:09:40;12.90;78.60
7606;DHT22;3844;53.360;9.738;2023-04-24T12:11:53;12.90;78.00
7606;DHT22;3844;53.360;9.738;2023-04-24T12:13:55;12.90;77.20
7606;DHT22;3844;53.360;9.738;2023-04-24T12:15:57;12.90;77.00
7606;DHT22;3844;53.360;9.738;2023-04-24T12:17:58;12.90;78.10
7606;DHT22;3844;53.360;9.738;2023-04-24T12:20:00;12.90;78.50
7606;DHT22;3844;53.360;9.738;2023-04-24T12:22:02;12.90;78.30
7606;DHT22;3844;53.360;9.738;2023-04-24T12:24:06;12.90;78.20
7606;DHT22;3844;53.360;9.738;2023-04-24T12:28:12;12.80;79.00
7606;DHT22;3844;53.360;9.738;2023-04-24T12:30:15;12.80;78.50
7606;DHT22;3844;53.360;9.738;2023-04-24T12:32:16;12.70;77.60
7606;DHT22;3844;53.360;9.738;2023-04-24T12:34:21;12.70;78.60
7606;DHT22;3844;53.360;9.738;2023-04-24T12:36:21;12.70;78.60
7606;DHT22;3844;53.360;9.738;2023-04-24T12:38:24;12.80;78.00
7606;DHT22;3844;53.360;9.738;2023-04-24T12:40:25;12.80;77.70
7606;DHT22;3844;53.360;9.738;2023-04-24T12:42:27;12.70;77.70
7606;DHT22;3844;53.360;9.738;2023-04-24T12:44:35;12.70;77.30
7606;DHT22;3844;53.360;9.738;2023-04-24T12:46:37;12.70;78.20
7606;DHT22;3844;53.360;9.738;2023-04-24T12:50:39;12.60;78.70
7606;DHT22;3844;53.360;9.738;2023-04-24T12:52:40;12.50;78.90
7606;DHT22;3844;53.360;9.738;2023-04-24T12:54:41;12.50;79.50
7606;DHT22;3844;53.360;9.738;2023-04-24T12:58:43;12.40;81.20
7606;DHT22;3844;53.360;9.738;2023-04-24T13:02:46;12.20;81.60
7606;DHT22;3844;53.360;9.738;2023-04-24T13:04:46;12.20;81.10
7606;DHT22;3844;53.360;9.738;2023-04-24T13:08:48;12.10;81.70
7606;DHT22;3844;53.360;9.738;2023-04-24T13:10:49;12.10;82.20
7606;DHT22;3844;53.360;9.738;2023-04-24T13:12:51;12.10;81.40
7606;DHT22;3844;53.360;9.738;2023-04-24T13:14:52;12.10;81.90
7606;DHT22;3844;53.360;9.738;2023-04-24T13:16:53;12.20;82.00
7606;DHT22;3844;53.360;9.738;2023-04-24T13:20:55;12.60;80.70
7606;DHT22;3844;53.360;9.738;2023-04-24T13:24:57;12.70;79.60
7606;DHT22;3844;53.360;9.738;2023-04-24T13:26:58;12.70;79.90
7606;DHT22;3844;53.360;9.738;2023-04-24T13:28:59;12.80;79.70
7606;DHT22;3844;53.360;9.738;2023-04-24T13:33:01;13.10;79.90
7606;DHT22;3844;53.360;9.738;2023-04-24T13:37:03;13.40;77.90
7606;DHT22;3844;53.360;9.738;2023-04-24T13:39:05;13.60;78.10
7606;DHT22;3844;53.360;9.738;2023-04-24T13:41:06;13.70;77.40
7606;DHT22;3844;53.360;9.738;2023-04-24T13:45:08;13.40;76.80
7606;DHT22;3844;53.360;9.738;2023-04-24T13:47:09;13.30;77.60
7606;DHT22;3844;53.360;9.738;2023-04-24T13:49:10;13.10;78.00
7606;DHT22;3844;53.360;9.738;2023-04-24T13:51:11;12.90;77.50
7606;DHT22;3844;53.360;9.738;2023-04-24T13:55:13;12.60;78.70
7606;DHT22;3844;53.360;9.738;2023-04-24T13:57:14;12.50;79.50
7606;DHT22;3844;53.360;9.738;2023-04-24T13:59:15;12.40;80.10
7606;DHT22;3844;53.360;9.738;2023-04-24T14:05:18;12.30;80.30
7606;DHT22;3844;53.360;9.738;2023-04-24T14:09:20;12.30;81.60
7606;DHT22;3844;53.360;9.738;2023-04-24T14:11:21;12.30;82.30
7606;DHT22;3844;53.360;9.738;2023-04-24T14:13:22;12.30;82.40
7606;DHT22;3844;53.360;9.738;2023-04-24T14:15:23;12.10;82.50
7606;DHT22;3844;53.360;9.738;2023-04-24T14:17:24;12.00;84.40
7606;DHT22;3844;53.360;9.738;2023-04-24T14:21:26;11.80;87.30
7606;DHT22;3844;53.360;9.738;2023-04-24T14:23:27;11.70;88.10
7606;DHT22;3844;53.360;9.738;2023-04-24T14:27:29;11.50;90.10
7606;DHT22;3844;53.360;9.738;2023-04-24T14:29:30;11.50;90.80
7606;DHT22;3844;53.360;9.738;2023-04-24T14:33:32;11.50;91.00
7606;DHT22;3844;53.360;9.738;2023-04-24T14:37:36;11.10;93.00
7606;DHT22;3844;53.360;9.738;2023-04-24T14:39:37;11.00;93.40
7606;DHT22;3844;53.360;9.738;2023-04-24T14:41:37;10.90;94.20
7606;DHT22;3844;53.360;9.738;2023-04-24T14:43:39;10.80;94.50
7606;DHT22;3844;53.360;9.738;2023-04-24T14:47:41;10.60;95.70
7606;DHT22;3844;53.360;9.738;2023-04-24T14:51:44;10.60;95.70
7606;DHT22;3844;53.360;9.738;2023-04-24T14:53:44;10.70;95.70
7606;DHT22;3844;53.360;9.738;2023-04-24T14:55:47;10.80;95.70
7606;DHT22;3844;53.360;9.738;2023-04-24T14:59:48;10.90;95.30
7606;DHT22;3844;53.360;9.738;2023-04-24T15:05:54;10.60;95.70
7606;DHT22;3844;53.360;9.738;2023-04-24T15:07:55;10.60;95.70
7606;DHT22;3844;53.360;9.738;2023-04-24T15:09:56;10.50;94.90
7606;DHT22;3844;53.360;9.738;2023-04-24T15:11:57;10.30;95.60
7606;DHT22;3844;53.360;9.738;2023-04-24T15:13:58;10.20;95.70
7606;DHT22;3844;53.360;9.738;2023-04-24T15:18:00;10.10;95.70
7606;DHT22;3844;53.360;9.738;2023-04-24T15:20:00;10.00;95.70
7606;DHT22;3844;53.360;9.738;2023-04-24T15:22:01;9.90;95.30
7606;DHT22;3844;53.360;9.738;2023-04-24T15:24:02;9.70;94.50
7606;DHT22;3844;53.360;9.738;2023-04-24T15:28:04;9.40;95.50
7606;DHT22;3844;53.360;9.738;2023-04-24T15:30:06;9.40;95.10
7606;DHT22;3844;53.360;9.738;2023-04-24T15:32:07;9.30;94.90
7606;DHT22;3844;53.360;9.738;2023-04-24T15:36:09;9.20;95.60
7606;DHT22;3844;53.360;9.738;2023-04-24T15:38:10;9.10;95.30
7606;DHT22;3844;53.360;9.738;2023-04-24T15:40:11;9.00;95.60
7606;DHT22;3844;53.360;9.738;2023-04-24T15:42:13;9.00;95.70
7606;DHT22;3844;53.360;9.738;2023-04-24T15:46:15;8.90;95.70
7606;DHT22;3844;53.360;9.738;2023-04-24T15:50:17;8.80;95.70
7606;DHT22;3844;53.360;9.738;2023-04-24T15:52:18;8.80;95.70
7606;DHT22;3844;53.360;9.738;2023-04-24T15:54:19;8.90;95.70
7606;DHT22;3844;53.360;9.738;2023-04-24T15:58:21;8.90;95.70
7606;DHT22;3844;53.360;9.738;2023-04-24T16:00:22;8.80;95.70
7606;DHT22;3844;53.360;9.738;2023-04-24T16:02:23;8.80;95.70
7606;DHT22;3844;53.360;9.738;2023-04-24T16:06:25;8.70;95.70
7606;DHT22;3844;53.360;9.738;2023-04-24T16:08:27;8.70;95.70
7606;DHT22;3844;53.360;9.738;2023-04-24T16:12:29;8.60;95.70
7606;DHT22;3844;53.360;9.738;2023-04-24T16:16:31;8.50;95.70
7606;DHT22;3844;53.360;9.738;2023-04-24T16:18:31;8.40;95.70
7606;DHT22;3844;53.360;9.738;2023-04-24T16:22:33;8.40;95.70
7606;DHT22;3844;53.360;9.738;2023-04-24T16:24:34;8.40;95.70
7606;DHT22;3844;53.360;9.738;2023-04-24T16:26:35;8.40;95.70
7606;DHT22;3844;53.360;9.738;2023-04-24T16:28:36;8.40;95.70
7606;DHT22;3844;53.360;9.738;2023-04-24T16:34:40;8.50;95.70
7606;DHT22;3844;53.360;9.738;2023-04-24T16:36:42;8.50;95.70
7606;DHT22;3844;53.360;9.738;2023-04-24T16:40:44;8.50;95.70
7606;DHT22;3844;53.360;9.738;2023-04-24T16:44:46;8.50;95.70
7606;DHT22;3844;53.360;9.738;2023-04-24T16:46:47;8.50;95.70
7606;DHT22;3844;53.360;9.738;2023-04-24T16:48:47;8.50;95.70
7606;DHT22;3844;53.360;9.738;2023-04-24T16:52:49;8.50;95.70
7606;DHT22;3844;53.360;9.738;2023-04-24T16:54:50;8.50;95.70
7606;DHT22;3844;53.360;9.738;2023-04-24T16:56:52;8.50;95.70
7606;DHT22;3844;53.360;9.738;2023-04-24T16:58:53;8.50;95.70
7606;DHT22;3844;53.360;9.738;2023-04-24T17:02:55;8.50;95.70
7606;DHT22;3844;53.360;9.738;2023-04-24T17:04:55;8.50;95.70
7606;DHT22;3844;53.360;9.738;2023-04-24T17:06:56;8.40;95.70
7606;DHT22;3844;53.360;9.738;2023-04-24T17:08:57;8.40;95.70
7606;DHT22;3844;53.360;9.738;2023-04-24T17:10:59;8.50;95.70
7606;DHT22;3844;53.360;9.738;2023-04-24T17:15:01;8.50;95.70
7606;DHT22;3844;53.360;9.738;2023-04-24T17:17:03;8.50;95.70
7606;DHT22;3844;53.360;9.738;2023-04-24T17:19:04;8.50;95.70
7606;DHT22;3844;53.360;9.738;2023-04-24T17:21:05;8.50;95.70
7606;DHT22;3844;53.360;9.738;2023-04-24T17:25:11;8.50;95.70
7606;DHT22;3844;53.360;9.738;2023-04-24T17:27:11;8.50;95.70
7606;DHT22;3844;53.360;9.738;2023-04-24T17:29:13;8.50;95.70
7606;DHT22;3844;53.360;9.738;2023-04-24T17:31:14;8.50;95.70
7606;DHT22;3844;53.360;9.738;2023-04-24T17:35:16;8.50;95.70
7606;DHT22;3844;53.360;9.738;2023-04-24T17:39:22;8.50;95.70
7606;DHT22;3844;53.360;9.738;2023-04-24T17:41:23;8.50;95.70
7606;DHT22;3844;53.360;9.738;2023-04-24T17:43:23;8.50;95.70
7606;DHT22;3844;53.360;9.738;2023-04-24T17:45:24;8.40;95.70